Terminal Aerodrome Forecast
Issued by NWS

Home | Current Version | Previous Version | Text Only | Print | Product List | Glossary On
Versions: 1 2 3 4 5 6 7 8 9 10 11 12 13
000
FTUS42 TJSJ 011141
TAFJSJ
TAF
TJSJ 011141Z 0112/0212 11005KT P6SM FEW035 SCT050
     FM011330 08015G25KT P6SM FEW040 FEW060
     FM012330 09005KT P6SM FEW030=

USA.gov is the U.S. government's official web portal to all federal, state and local government web resources and services.